sensor_id;sensor_type;location;lat;lon;timestamp;P1;durP1;ratioP1;P2;durP2;ratioP2
1122;SDS011;548;48.778;9.252;2023-04-12T00:01:49;13.90;;;12.50;;
1122;SDS011;548;48.778;9.252;2023-04-12T00:04:16;11.47;;;10.73;;
1122;SDS011;548;48.778;9.252;2023-04-12T00:06:42;12.70;;;11.90;;
1122;SDS011;548;48.778;9.252;2023-04-12T00:09:12;14.33;;;13.20;;
1122;SDS011;548;48.778;9.252;2023-04-12T00:11:41;16.80;;;15.10;;
1122;SDS011;548;48.778;9.252;2023-04-12T00:14:08;14.93;;;13.77;;
1122;SDS011;548;48.778;9.252;2023-04-12T00:16:35;14.47;;;13.47;;
1122;SDS011;548;48.778;9.252;2023-04-12T00:19:02;13.00;;;12.00;;
1122;SDS011;548;48.778;9.252;2023-04-12T00:21:30;13.30;;;12.50;;
1122;SDS011;548;48.778;9.252;2023-04-12T00:23:57;13.97;;;13.13;;
1122;SDS011;548;48.778;9.252;2023-04-12T00:26:25;14.37;;;13.40;;
1122;SDS011;548;48.778;9.252;2023-04-12T00:28:53;14.80;;;13.70;;
1122;SDS011;548;48.778;9.252;2023-04-12T00:31:19;12.70;;;12.10;;
1122;SDS011;548;48.778;9.252;2023-04-12T00:33:46;12.37;;;11.47;;
1122;SDS011;548;48.778;9.252;2023-04-12T00:36:13;11.50;;;10.80;;
1122;SDS011;548;48.778;9.252;2023-04-12T00:38:39;12.20;;;11.50;;
1122;SDS011;548;48.778;9.252;2023-04-12T00:41:06;14.23;;;13.40;;
1122;SDS011;548;48.778;9.252;2023-04-12T00:43:33;15.50;;;14.70;;
1122;SDS011;548;48.778;9.252;2023-04-12T00:46:01;15.47;;;14.63;;
1122;SDS011;548;48.778;9.252;2023-04-12T00:48:28;19.50;;;18.50;;
1122;SDS011;548;48.778;9.252;2023-04-12T00:50:56;22.43;;;21.00;;
1122;SDS011;548;48.778;9.252;2023-04-12T00:53:23;23.37;;;22.37;;
1122;SDS011;548;48.778;9.252;2023-04-12T00:55:50;26.10;;;24.10;;
1122;SDS011;548;48.778;9.252;2023-04-12T00:58:17;25.90;;;24.50;;
1122;SDS011;548;48.778;9.252;2023-04-12T01:00:45;25.83;;;24.43;;
1122;SDS011;548;48.778;9.252;2023-04-12T01:03:18;26.70;;;25.10;;
1122;SDS011;548;48.778;9.252;2023-04-12T01:05:49;27.03;;;24.87;;
1122;SDS011;548;48.778;9.252;2023-04-12T01:08:27;26.90;;;25.30;;
1122;SDS011;548;48.778;9.252;2023-04-12T01:11:04;25.80;;;24.50;;
1122;SDS011;548;48.778;9.252;2023-04-12T01:13:40;27.17;;;25.73;;
1122;SDS011;548;48.778;9.252;2023-04-12T01:16:11;29.07;;;27.57;;
1122;SDS011;548;48.778;9.252;2023-04-12T01:18:44;27.57;;;25.97;;
1122;SDS011;548;48.778;9.252;2023-04-12T01:21:17;27.77;;;26.47;;
1122;SDS011;548;48.778;9.252;2023-04-12T01:23:57;27.20;;;25.67;;
1122;SDS011;548;48.778;9.252;2023-04-12T01:26:38;29.40;;;27.60;;
1122;SDS011;548;48.778;9.252;2023-04-12T01:29:10;28.13;;;26.57;;
1122;SDS011;548;48.778;9.252;2023-04-12T01:31:40;29.93;;;28.23;;
1122;SDS011;548;48.778;9.252;2023-04-12T01:34:09;28.77;;;27.07;;
1122;SDS011;548;48.778;9.252;2023-04-12T01:36:38;28.63;;;27.10;;
1122;SDS011;548;48.778;9.252;2023-04-12T01:39:06;31.20;;;29.00;;
1122;SDS011;548;48.778;9.252;2023-04-12T01:41:33;30.10;;;28.20;;
1122;SDS011;548;48.778;9.252;2023-04-12T01:44:05;29.43;;;27.73;;
1122;SDS011;548;48.778;9.252;2023-04-12T01:46:33;28.70;;;27.00;;
1122;SDS011;548;48.778;9.252;2023-04-12T01:49:01;30.60;;;28.30;;
1122;SDS011;548;48.778;9.252;2023-04-12T01:51:32;29.67;;;27.97;;
1122;SDS011;548;48.778;9.252;2023-04-12T01:54:05;29.37;;;27.23;;
1122;SDS011;548;48.778;9.252;2023-04-12T01:56:35;29.00;;;27.10;;
1122;SDS011;548;48.778;9.252;2023-04-12T01:59:05;29.87;;;28.23;;
1122;SDS011;548;48.778;9.252;2023-04-12T02:01:34;30.40;;;28.17;;
1122;SDS011;548;48.778;9.252;2023-04-12T02:04:01;30.57;;;28.47;;
1122;SDS011;548;48.778;9.252;2023-04-12T02:06:30;28.90;;;27.23;;
1122;SDS011;548;48.778;9.252;2023-04-12T02:08:59;29.23;;;27.40;;
1122;SDS011;548;48.778;9.252;2023-04-12T02:11:27;29.07;;;27.30;;
1122;SDS011;548;48.778;9.252;2023-04-12T02:13:54;29.27;;;27.20;;
1122;SDS011;548;48.778;9.252;2023-04-12T02:16:20;29.83;;;27.90;;
1122;SDS011;548;48.778;9.252;2023-04-12T02:18:49;31.10;;;28.83;;
1122;SDS011;548;48.778;9.252;2023-04-12T02:21:16;30.40;;;28.10;;
1122;SDS011;548;48.778;9.252;2023-04-12T02:23:42;29.03;;;27.23;;
1122;SDS011;548;48.778;9.252;2023-04-12T02:26:09;29.30;;;27.40;;
1122;SDS011;548;48.778;9.252;2023-04-12T02:28:36;30.17;;;27.87;;
1122;SDS011;548;48.778;9.252;2023-04-12T02:31:03;29.43;;;27.73;;
1122;SDS011;548;48.778;9.252;2023-04-12T02:33:30;29.63;;;27.73;;
1122;SDS011;548;48.778;9.252;2023-04-12T02:36:00;29.17;;;27.40;;
1122;SDS011;548;48.778;9.252;2023-04-12T02:38:27;29.10;;;27.40;;
1122;SDS011;548;48.778;9.252;2023-04-12T02:40:54;28.97;;;27.17;;
1122;SDS011;548;48.778;9.252;2023-04-12T02:43:20;28.60;;;27.03;;
1122;SDS011;548;48.778;9.252;2023-04-12T02:45:47;28.70;;;26.80;;
1122;SDS011;548;48.778;9.252;2023-04-12T02:48:14;29.07;;;27.20;;
1122;SDS011;548;48.778;9.252;2023-04-12T02:50:40;30.90;;;28.80;;
1122;SDS011;548;48.778;9.252;2023-04-12T02:53:08;31.07;;;29.17;;
1122;SDS011;548;48.778;9.252;2023-04-12T02:55:36;28.03;;;26.53;;
1122;SDS011;548;48.778;9.252;2023-04-12T02:58:04;29.70;;;28.10;;
1122;SDS011;548;48.778;9.252;2023-04-12T03:00:31;30.03;;;28.13;;
1122;SDS011;548;48.778;9.252;2023-04-12T03:02:58;32.00;;;29.80;;
1122;SDS011;548;48.778;9.252;2023-04-12T03:05:25;29.03;;;27.40;;
1122;SDS011;548;48.778;9.252;2023-04-12T03:07:52;29.53;;;27.83;;
1122;SDS011;548;48.778;9.252;2023-04-12T03:10:20;29.67;;;27.97;;
1122;SDS011;548;48.778;9.252;2023-04-12T03:12:47;31.40;;;29.40;;
1122;SDS011;548;48.778;9.252;2023-04-12T03:15:14;28.90;;;27.20;;
1122;SDS011;548;48.778;9.252;2023-04-12T03:17:41;31.57;;;29.40;;
1122;SDS011;548;48.778;9.252;2023-04-12T03:20:09;32.10;;;30.20;;
1122;SDS011;548;48.778;9.252;2023-04-12T03:22:36;31.30;;;29.40;;
1122;SDS011;548;48.778;9.252;2023-04-12T03:25:02;31.73;;;29.93;;
1122;SDS011;548;48.778;9.252;2023-04-12T03:27:31;30.77;;;28.80;;
1122;SDS011;548;48.778;9.252;2023-04-12T03:29:58;31.20;;;29.03;;
1122;SDS011;548;48.778;9.252;2023-04-12T03:32:24;30.20;;;28.40;;
1122;SDS011;548;48.778;9.252;2023-04-12T03:34:51;33.50;;;31.10;;
1122;SDS011;548;48.778;9.252;2023-04-12T03:37:18;32.50;;;30.33;;
1122;SDS011;548;48.778;9.252;2023-04-12T03:39:44;31.30;;;29.10;;
1122;SDS011;548;48.778;9.252;2023-04-12T03:42:11;32.10;;;30.30;;
1122;SDS011;548;48.778;9.252;2023-04-12T03:44:40;32.13;;;30.23;;
1122;SDS011;548;48.778;9.252;2023-04-12T03:47:06;32.43;;;30.47;;
1122;SDS011;548;48.778;9.252;2023-04-12T03:49:33;30.80;;;29.00;;
1122;SDS011;548;48.778;9.252;2023-04-12T03:52:03;31.90;;;29.60;;
1122;SDS011;548;48.778;9.252;2023-04-12T03:54:31;31.10;;;29.13;;
1122;SDS011;548;48.778;9.252;2023-04-12T03:56:57;29.10;;;27.50;;
1122;SDS011;548;48.778;9.252;2023-04-12T03:59:26;31.43;;;29.40;;
1122;SDS011;548;48.778;9.252;2023-04-12T04:01:54;32.13;;;30.13;;
1122;SDS011;548;48.778;9.252;2023-04-12T04:04:21;32.17;;;30.17;;
1122;SDS011;548;48.778;9.252;2023-04-12T04:06:48;30.80;;;28.67;;
1122;SDS011;548;48.778;9.252;2023-04-12T04:09:15;30.43;;;28.13;;
1122;SDS011;548;48.778;9.252;2023-04-12T04:11:41;29.07;;;27.57;;
1122;SDS011;548;48.778;9.252;2023-04-12T04:14:08;28.97;;;27.30;;
1122;SDS011;548;48.778;9.252;2023-04-12T04:16:35;28.87;;;27.17;;
1122;SDS011;548;48.778;9.252;2023-04-12T04:19:03;29.00;;;27.40;;
1122;SDS011;548;48.778;9.252;2023-04-12T04:21:30;28.67;;;27.10;;
1122;SDS011;548;48.778;9.252;2023-04-12T04:23:57;30.77;;;28.97;;
1122;SDS011;548;48.778;9.252;2023-04-12T04:26:25;29.37;;;27.63;;
1122;SDS011;548;48.778;9.252;2023-04-12T04:28:56;29.13;;;27.53;;
1122;SDS011;548;48.778;9.252;2023-04-12T04:31:26;30.43;;;28.70;;
1122;SDS011;548;48.778;9.252;2023-04-12T04:33:58;32.80;;;30.47;;
1122;SDS011;548;48.778;9.252;2023-04-12T04:36:26;31.30;;;29.40;;
1122;SDS011;548;48.778;9.252;2023-04-12T04:38:53;30.00;;;28.17;;
1122;SDS011;548;48.778;9.252;2023-04-12T04:41:22;30.53;;;28.63;;
1122;SDS011;548;48.778;9.252;2023-04-12T04:43:48;30.93;;;29.17;;
1122;SDS011;548;48.778;9.252;2023-04-12T04:46:15;29.67;;;27.87;;
1122;SDS011;548;48.778;9.252;2023-04-12T04:48:45;30.20;;;28.40;;
1122;SDS011;548;48.778;9.252;2023-04-12T04:51:11;30.53;;;28.83;;
1122;SDS011;548;48.778;9.252;2023-04-12T04:53:40;30.73;;;28.93;;
1122;SDS011;548;48.778;9.252;2023-04-12T04:56:07;29.37;;;27.77;;
1122;SDS011;548;48.778;9.252;2023-04-12T04:58:34;30.23;;;28.57;;
1122;SDS011;548;48.778;9.252;2023-04-12T05:01:01;30.67;;;28.60;;
1122;SDS011;548;48.778;9.252;2023-04-12T05:03:29;31.40;;;29.30;;
1122;SDS011;548;48.778;9.252;2023-04-12T05:05:58;30.40;;;28.70;;
1122;SDS011;548;48.778;9.252;2023-04-12T05:08:25;30.67;;;28.77;;
1122;SDS011;548;48.778;9.252;2023-04-12T05:10:54;32.23;;;30.10;;
1122;SDS011;548;48.778;9.252;2023-04-12T05:13:22;31.00;;;29.03;;
1122;SDS011;548;48.778;9.252;2023-04-12T05:15:48;32.97;;;30.77;;
1122;SDS011;548;48.778;9.252;2023-04-12T05:18:15;29.47;;;27.87;;
1122;SDS011;548;48.778;9.252;2023-04-12T05:20:43;29.23;;;27.53;;
1122;SDS011;548;48.778;9.252;2023-04-12T05:23:10;31.03;;;29.13;;
1122;SDS011;548;48.778;9.252;2023-04-12T05:25:42;29.97;;;28.27;;
1122;SDS011;548;48.778;9.252;2023-04-12T05:28:12;30.80;;;28.70;;
1122;SDS011;548;48.778;9.252;2023-04-12T05:30:39;31.63;;;29.60;;
1122;SDS011;548;48.778;9.252;2023-04-12T05:33:06;30.73;;;28.80;;
1122;SDS011;548;48.778;9.252;2023-04-12T05:35:32;32.00;;;29.60;;
1122;SDS011;548;48.778;9.252;2023-04-12T05:37:59;31.03;;;29.23;;
1122;SDS011;548;48.778;9.252;2023-04-12T05:40:26;31.37;;;29.17;;
1122;SDS011;548;48.778;9.252;2023-04-12T05:42:55;31.97;;;29.97;;
1122;SDS011;548;48.778;9.252;2023-04-12T05:45:23;30.90;;;28.90;;
1122;SDS011;548;48.778;9.252;2023-04-12T05:47:50;31.83;;;29.73;;
1122;SDS011;548;48.778;9.252;2023-04-12T05:50:17;29.33;;;27.83;;
1122;SDS011;548;48.778;9.252;2023-04-12T05:52:44;30.23;;;28.53;;
1122;SDS011;548;48.778;9.252;2023-04-12T05:55:12;31.17;;;29.33;;
1122;SDS011;548;48.778;9.252;2023-04-12T05:57:40;29.47;;;27.87;;
1122;SDS011;548;48.778;9.252;2023-04-12T06:00:08;30.40;;;28.57;;
1122;SDS011;548;48.778;9.252;2023-04-12T06:02:38;30.43;;;28.53;;
1122;SDS011;548;48.778;9.252;2023-04-12T06:05:06;28.30;;;27.00;;
1122;SDS011;548;48.778;9.252;2023-04-12T06:07:33;30.37;;;28.77;;
1122;SDS011;548;48.778;9.252;2023-04-12T06:10:00;30.00;;;28.30;;
1122;SDS011;548;48.778;9.252;2023-04-12T06:12:27;30.40;;;28.60;;
1122;SDS011;548;48.778;9.252;2023-04-12T06:14:54;30.50;;;29.10;;
1122;SDS011;548;48.778;9.252;2023-04-12T06:17:21;30.90;;;29.37;;
1122;SDS011;548;48.778;9.252;2023-04-12T06:19:49;28.70;;;27.10;;
1122;SDS011;548;48.778;9.252;2023-04-12T06:22:16;28.83;;;27.20;;
1122;SDS011;548;48.778;9.252;2023-04-12T06:24:43;29.27;;;27.80;;
1122;SDS011;548;48.778;9.252;2023-04-12T06:27:10;28.40;;;27.00;;
1122;SDS011;548;48.778;9.252;2023-04-12T06:29:36;28.70;;;27.17;;
1122;SDS011;548;48.778;9.252;2023-04-12T06:32:03;29.60;;;27.93;;
1122;SDS011;548;48.778;9.252;2023-04-12T06:34:30;30.90;;;29.30;;
1122;SDS011;548;48.778;9.252;2023-04-12T06:36:58;31.90;;;30.10;;
1122;SDS011;548;48.778;9.252;2023-04-12T06:39:25;30.57;;;28.97;;
1122;SDS011;548;48.778;9.252;2023-04-12T06:41:52;30.73;;;28.67;;
1122;SDS011;548;48.778;9.252;2023-04-12T06:44:21;31.10;;;29.20;;
1122;SDS011;548;48.778;9.252;2023-04-12T06:46:48;30.30;;;28.70;;
1122;SDS011;548;48.778;9.252;2023-04-12T06:49:15;31.20;;;29.40;;
1122;SDS011;548;48.778;9.252;2023-04-12T06:51:42;30.63;;;28.73;;
1122;SDS011;548;48.778;9.252;2023-04-12T06:54:11;31.07;;;29.50;;
1122;SDS011;548;48.778;9.252;2023-04-12T06:56:38;32.03;;;30.13;;
1122;SDS011;548;48.778;9.252;2023-04-12T06:59:05;31.50;;;30.00;;
1122;SDS011;548;48.778;9.252;2023-04-12T07:01:33;31.33;;;29.57;;
1122;SDS011;548;48.778;9.252;2023-04-12T07:04:00;30.70;;;29.10;;
1122;SDS011;548;48.778;9.252;2023-04-12T07:06:27;30.83;;;28.93;;
1122;SDS011;548;48.778;9.252;2023-04-12T07:08:53;32.53;;;30.83;;
1122;SDS011;548;48.778;9.252;2023-04-12T07:11:22;30.47;;;28.77;;
1122;SDS011;548;48.778;9.252;2023-04-12T07:13:48;32.97;;;31.27;;
1122;SDS011;548;48.778;9.252;2023-04-12T07:16:16;33.33;;;31.63;;
1122;SDS011;548;48.778;9.252;2023-04-12T07:18:42;30.03;;;28.40;;
1122;SDS011;548;48.778;9.252;2023-04-12T07:21:09;29.43;;;28.13;;
1122;SDS011;548;48.778;9.252;2023-04-12T07:23:38;31.93;;;30.20;;
1122;SDS011;548;48.778;9.252;2023-04-12T07:26:05;30.70;;;29.30;;
1122;SDS011;548;48.778;9.252;2023-04-12T07:28:33;30.43;;;28.57;;
1122;SDS011;548;48.778;9.252;2023-04-12T07:31:00;31.77;;;30.20;;
1122;SDS011;548;48.778;9.252;2023-04-12T07:33:29;29.97;;;28.33;;
1122;SDS011;548;48.778;9.252;2023-04-12T07:35:56;31.50;;;29.80;;
1122;SDS011;548;48.778;9.252;2023-04-12T07:38:24;31.23;;;29.83;;
1122;SDS011;548;48.778;9.252;2023-04-12T07:40:51;31.90;;;30.27;;
1122;SDS011;548;48.778;9.252;2023-04-12T07:43:19;30.97;;;29.47;;
1122;SDS011;548;48.778;9.252;2023-04-12T07:45:47;32.70;;;31.13;;
1122;SDS011;548;48.778;9.252;2023-04-12T07:48:13;31.97;;;30.37;;
1122;SDS011;548;48.778;9.252;2023-04-12T07:50:40;32.17;;;30.30;;
1122;SDS011;548;48.778;9.252;2023-04-12T07:53:17;30.17;;;28.77;;
1122;SDS011;548;48.778;9.252;2023-04-12T07:55:44;29.47;;;28.00;;
1122;SDS011;548;48.778;9.252;2023-04-12T07:58:11;29.27;;;28.03;;
1122;SDS011;548;48.778;9.252;2023-04-12T08:00:38;28.50;;;27.20;;
1122;SDS011;548;48.778;9.252;2023-04-12T08:03:06;27.53;;;25.70;;
1122;SDS011;548;48.778;9.252;2023-04-12T08:05:33;26.17;;;24.97;;
1122;SDS011;548;48.778;9.252;2023-04-12T08:08:00;25.73;;;24.43;;
1122;SDS011;548;48.778;9.252;2023-04-12T08:10:26;21.70;;;20.90;;
1122;SDS011;548;48.778;9.252;2023-04-12T08:12:54;20.13;;;19.23;;
1122;SDS011;548;48.778;9.252;2023-04-12T08:15:20;17.97;;;17.20;;
1122;SDS011;548;48.778;9.252;2023-04-12T08:17:47;18.00;;;16.90;;
1122;SDS011;548;48.778;9.252;2023-04-12T08:20:15;17.37;;;16.67;;
1122;SDS011;548;48.778;9.252;2023-04-12T08:22:42;15.90;;;15.23;;
1122;SDS011;548;48.778;9.252;2023-04-12T08:25:09;15.50;;;14.80;;
1122;SDS011;548;48.778;9.252;2023-04-12T08:27:37;13.50;;;13.00;;
1122;SDS011;548;48.778;9.252;2023-04-12T08:30:05;14.50;;;14.00;;
1122;SDS011;548;48.778;9.252;2023-04-12T08:32:33;13.40;;;12.80;;
1122;SDS011;548;48.778;9.252;2023-04-12T08:35:01;14.80;;;14.00;;
1122;SDS011;548;48.778;9.252;2023-04-12T08:37:29;13.33;;;12.83;;
1122;SDS011;548;48.778;9.252;2023-04-12T08:39:57;13.07;;;12.60;;
1122;SDS011;548;48.778;9.252;2023-04-12T08:42:24;14.13;;;13.20;;
1122;SDS011;548;48.778;9.252;2023-04-12T08:44:51;14.80;;;14.13;;
1122;SDS011;548;48.778;9.252;2023-04-12T08:47:18;14.10;;;13.23;;
1122;SDS011;548;48.778;9.252;2023-04-12T08:49:47;14.70;;;13.90;;
1122;SDS011;548;48.778;9.252;2023-04-12T08:52:13;16.10;;;13.90;;
1122;SDS011;548;48.778;9.252;2023-04-12T08:54:42;15.07;;;13.80;;
1122;SDS011;548;48.778;9.252;2023-04-12T08:57:08;15.47;;;14.67;;
1122;SDS011;548;48.778;9.252;2023-04-12T08:59:36;16.40;;;15.60;;
1122;SDS011;548;48.778;9.252;2023-04-12T09:02:04;15.43;;;14.73;;
1122;SDS011;548;48.778;9.252;2023-04-12T09:04:30;16.33;;;15.63;;
1122;SDS011;548;48.778;9.252;2023-04-12T09:06:57;16.10;;;15.50;;
1122;SDS011;548;48.778;9.252;2023-04-12T09:09:39;15.23;;;14.53;;
1122;SDS011;548;48.778;9.252;2023-04-12T09:12:07;16.60;;;15.80;;
1122;SDS011;548;48.778;9.252;2023-04-12T09:14:36;18.20;;;17.30;;
1122;SDS011;548;48.778;9.252;2023-04-12T09:17:04;21.63;;;20.43;;
1122;SDS011;548;48.778;9.252;2023-04-12T09:19:31;23.70;;;22.60;;
1122;SDS011;548;48.778;9.252;2023-04-12T09:21:58;22.07;;;21.07;;
1122;SDS011;548;48.778;9.252;2023-04-12T09:24:25;25.00;;;23.70;;
1122;SDS011;548;48.778;9.252;2023-04-12T09:26:59;24.30;;;23.10;;
1122;SDS011;548;48.778;9.252;2023-04-12T09:29:29;22.67;;;21.57;;
1122;SDS011;548;48.778;9.252;2023-04-12T09:31:59;23.00;;;21.93;;
1122;SDS011;548;48.778;9.252;2023-04-12T09:34:27;24.57;;;23.27;;
1122;SDS011;548;48.778;9.252;2023-04-12T09:36:54;24.03;;;22.83;;
1122;SDS011;548;48.778;9.252;2023-04-12T09:39:30;22.60;;;21.60;;
1122;SDS011;548;48.778;9.252;2023-04-12T09:42:04;21.97;;;20.87;;
1122;SDS011;548;48.778;9.252;2023-04-12T09:44:33;21.37;;;20.40;;
1122;SDS011;548;48.778;9.252;2023-04-12T09:47:00;21.03;;;20.13;;
1122;SDS011;548;48.778;9.252;2023-04-12T09:49:35;19.53;;;18.63;;
1122;SDS011;548;48.778;9.252;2023-04-12T09:52:04;19.00;;;18.20;;
1122;SDS011;548;48.778;9.252;2023-04-12T09:54:32;18.70;;;18.00;;
1122;SDS011;548;48.778;9.252;2023-04-12T09:57:04;18.93;;;18.03;;
1122;SDS011;548;48.778;9.252;2023-04-12T09:59:34;18.63;;;17.83;;
1122;SDS011;548;48.778;9.252;2023-04-12T10:02:05;19.47;;;18.37;;
1122;SDS011;548;48.778;9.252;2023-04-12T10:04:36;18.27;;;17.50;;
1122;SDS011;548;48.778;9.252;2023-04-12T10:07:05;19.23;;;18.33;;
1122;SDS011;548;48.778;9.252;2023-04-12T10:09:32;17.30;;;16.40;;
1122;SDS011;548;48.778;9.252;2023-04-12T10:12:00;15.27;;;14.67;;
1122;SDS011;548;48.778;9.252;2023-04-12T10:14:28;13.90;;;13.20;;
1122;SDS011;548;48.778;9.252;2023-04-12T10:16:57;12.83;;;11.97;;
1122;SDS011;548;48.778;9.252;2023-04-12T10:19:26;13.57;;;12.67;;
1122;SDS011;548;48.778;9.252;2023-04-12T10:21:54;12.27;;;11.60;;
1122;SDS011;548;48.778;9.252;2023-04-12T10:24:21;11.73;;;10.90;;
1122;SDS011;548;48.778;9.252;2023-04-12T10:26:49;12.20;;;11.40;;
1122;SDS011;548;48.778;9.252;2023-04-12T10:29:23;11.13;;;10.53;;
1122;SDS011;548;48.778;9.252;2023-04-12T10:31:50;10.70;;;9.90;;
1122;SDS011;548;48.778;9.252;2023-04-12T10:34:23;12.53;;;11.93;;
1122;SDS011;548;48.778;9.252;2023-04-12T10:36:54;10.60;;;10.20;;
1122;SDS011;548;48.778;9.252;2023-04-12T10:39:35;11.20;;;10.67;;
1122;SDS011;548;48.778;9.252;2023-04-12T10:42:19;12.87;;;12.17;;
1122;SDS011;548;48.778;9.252;2023-04-12T10:44:48;10.33;;;9.93;;
1122;SDS011;548;48.778;9.252;2023-04-12T10:47:16;10.80;;;10.40;;
1122;SDS011;548;48.778;9.252;2023-04-12T10:50:26;11.30;;;10.80;;
1122;SDS011;548;48.778;9.252;2023-04-12T10:55:50;10.50;;;10.03;;
1122;SDS011;548;48.778;9.252;2023-04-12T11:01:22;11.50;;;10.60;;
1122;SDS011;548;48.778;9.252;2023-04-12T11:09:38;11.13;;;10.73;;
1122;SDS011;548;48.778;9.252;2023-04-12T11:12:10;12.07;;;11.57;;
1122;SDS011;548;48.778;9.252;2023-04-12T11:14:42;10.57;;;10.17;;
1122;SDS011;548;48.778;9.252;2023-04-12T11:17:22;10.43;;;9.93;;
1122;SDS011;548;48.778;9.252;2023-04-12T11:19:51;9.77;;;9.30;;
1122;SDS011;548;48.778;9.252;2023-04-12T11:22:21;10.37;;;9.87;;
1122;SDS011;548;48.778;9.252;2023-04-12T11:24:50;11.43;;;10.97;;
1122;SDS011;548;48.778;9.252;2023-04-12T11:27:18;11.63;;;11.23;;
1122;SDS011;548;48.778;9.252;2023-04-12T11:29:47;11.30;;;10.90;;
1122;SDS011;548;48.778;9.252;2023-04-12T11:32:15;12.30;;;11.90;;
1122;SDS011;548;48.778;9.252;2023-04-12T11:34:42;11.10;;;10.70;;
1122;SDS011;548;48.778;9.252;2023-04-12T11:37:09;12.37;;;11.73;;
1122;SDS011;548;48.778;9.252;2023-04-12T11:39:38;11.90;;;11.40;;
1122;SDS011;548;48.778;9.252;2023-04-12T11:42:06;11.63;;;11.23;;
1122;SDS011;548;48.778;9.252;2023-04-12T11:44:38;10.97;;;10.50;;
1122;SDS011;548;48.778;9.252;2023-04-12T11:47:09;9.93;;;9.53;;
1122;SDS011;548;48.778;9.252;2023-04-12T11:49:41;9.60;;;9.30;;
1122;SDS011;548;48.778;9.252;2023-04-12T11:52:08;9.20;;;8.80;;
1122;SDS011;548;48.778;9.252;2023-04-12T11:54:37;9.67;;;9.37;;
1122;SDS011;548;48.778;9.252;2023-04-12T11:57:11;10.83;;;10.43;;
1122;SDS011;548;48.778;9.252;2023-04-12T11:59:38;10.20;;;9.90;;
1122;SDS011;548;48.778;9.252;2023-04-12T12:02:07;10.80;;;10.37;;
1122;SDS011;548;48.778;9.252;2023-04-12T12:04:34;10.70;;;10.30;;
1122;SDS011;548;48.778;9.252;2023-04-12T12:07:01;10.57;;;10.17;;
1122;SDS011;548;48.778;9.252;2023-04-12T12:09:30;10.53;;;10.13;;
1122;SDS011;548;48.778;9.252;2023-04-12T12:11:58;11.23;;;10.73;;
1122;SDS011;548;48.778;9.252;2023-04-12T12:14:25;11.10;;;10.67;;
1122;SDS011;548;48.778;9.252;2023-04-12T12:16:53;11.83;;;11.43;;
1122;SDS011;548;48.778;9.252;2023-04-12T12:19:28;10.03;;;9.57;;
1122;SDS011;548;48.778;9.252;2023-04-12T12:24:50;9.60;;;9.30;;
1122;SDS011;548;48.778;9.252;2023-04-12T12:27:20;10.00;;;9.70;;
1122;SDS011;548;48.778;9.252;2023-04-12T12:29:48;12.00;;;11.50;;
1122;SDS011;548;48.778;9.252;2023-04-12T12:32:17;10.83;;;10.43;;
1122;SDS011;548;48.778;9.252;2023-04-12T12:34:51;11.63;;;11.10;;
1122;SDS011;548;48.778;9.252;2023-04-12T12:37:19;10.70;;;10.40;;
1122;SDS011;548;48.778;9.252;2023-04-12T12:40:01;10.70;;;10.30;;
1122;SDS011;548;48.778;9.252;2023-04-12T12:42:37;10.27;;;9.97;;
1122;SDS011;548;48.778;9.252;2023-04-12T12:45:10;11.53;;;11.13;;
1122;SDS011;548;48.778;9.252;2023-04-12T12:47:44;9.90;;;9.60;;
1122;SDS011;548;48.778;9.252;2023-04-12T12:50:11;10.17;;;9.77;;
1122;SDS011;548;48.778;9.252;2023-04-12T12:52:40;11.03;;;10.63;;
1122;SDS011;548;48.778;9.252;2023-04-12T12:55:07;10.77;;;10.47;;
1122;SDS011;548;48.778;9.252;2023-04-12T12:57:34;10.50;;;10.07;;
1122;SDS011;548;48.778;9.252;2023-04-12T13:00:02;10.70;;;10.30;;
1122;SDS011;548;48.778;9.252;2023-04-12T13:02:30;10.10;;;9.70;;
1122;SDS011;548;48.778;9.252;2023-04-12T13:04:58;12.33;;;11.87;;
1122;SDS011;548;48.778;9.252;2023-04-12T13:07:25;10.60;;;10.30;;
1122;SDS011;548;48.778;9.252;2023-04-12T13:09:52;10.30;;;9.80;;
1122;SDS011;548;48.778;9.252;2023-04-12T13:12:19;10.50;;;10.00;;
1122;SDS011;548;48.778;9.252;2023-04-12T13:14:46;10.20;;;9.90;;
1122;SDS011;548;48.778;9.252;2023-04-12T13:17:14;10.43;;;10.10;;
1122;SDS011;548;48.778;9.252;2023-04-12T13:19:41;11.30;;;10.90;;
1122;SDS011;548;48.778;9.252;2023-04-12T13:22:07;10.50;;;9.90;;
1122;SDS011;548;48.778;9.252;2023-04-12T13:24:34;9.53;;;9.13;;
1122;SDS011;548;48.778;9.252;2023-04-12T13:27:01;11.23;;;10.83;;
1122;SDS011;548;48.778;9.252;2023-04-12T13:29:27;11.33;;;10.73;;
1122;SDS011;548;48.778;9.252;2023-04-12T13:31:54;10.80;;;10.50;;
1122;SDS011;548;48.778;9.252;2023-04-12T13:34:23;10.13;;;9.80;;
1122;SDS011;548;48.778;9.252;2023-04-12T13:36:49;9.50;;;9.10;;
1122;SDS011;548;48.778;9.252;2023-04-12T13:39:16;9.60;;;9.30;;
1122;SDS011;548;48.778;9.252;2023-04-12T13:41:43;10.70;;;10.20;;
1122;SDS011;548;48.778;9.252;2023-04-12T13:44:10;10.70;;;10.30;;
1122;SDS011;548;48.778;9.252;2023-04-12T13:46:37;10.40;;;10.00;;
1122;SDS011;548;48.778;9.252;2023-04-12T13:49:03;10.77;;;10.47;;
1122;SDS011;548;48.778;9.252;2023-04-12T13:51:31;10.37;;;10.07;;
1122;SDS011;548;48.778;9.252;2023-04-12T13:53:58;10.17;;;9.77;;
1122;SDS011;548;48.778;9.252;2023-04-12T13:56:25;10.50;;;10.20;;
1122;SDS011;548;48.778;9.252;2023-04-12T13:58:52;11.03;;;10.20;;
1122;SDS011;548;48.778;9.252;2023-04-12T14:01:19;10.47;;;10.07;;
1122;SDS011;548;48.778;9.252;2023-04-12T14:03:47;10.33;;;10.03;;
1122;SDS011;548;48.778;9.252;2023-04-12T14:06:14;9.93;;;9.63;;
1122;SDS011;548;48.778;9.252;2023-04-12T14:08:42;9.53;;;9.23;;
1122;SDS011;548;48.778;9.252;2023-04-12T14:11:08;9.97;;;9.57;;
1122;SDS011;548;48.778;9.252;2023-04-12T14:13:35;9.70;;;9.37;;
1122;SDS011;548;48.778;9.252;2023-04-12T14:16:02;9.90;;;9.60;;
1122;SDS011;548;48.778;9.252;2023-04-12T14:18:31;9.87;;;9.57;;
1122;SDS011;548;48.778;9.252;2023-04-12T14:20:57;10.33;;;9.87;;
1122;SDS011;548;48.778;9.252;2023-04-12T14:23:24;9.83;;;9.47;;
1122;SDS011;548;48.778;9.252;2023-04-12T14:25:53;10.50;;;10.10;;
1122;SDS011;548;48.778;9.252;2023-04-12T14:28:19;9.90;;;9.33;;
1122;SDS011;548;48.778;9.252;2023-04-12T14:30:49;8.97;;;8.57;;
1122;SDS011;548;48.778;9.252;2023-04-12T14:33:16;10.60;;;10.10;;
1122;SDS011;548;48.778;9.252;2023-04-12T14:35:42;11.57;;;11.07;;
1122;SDS011;548;48.778;9.252;2023-04-12T14:38:10;11.13;;;10.63;;
1122;SDS011;548;48.778;9.252;2023-04-12T14:40:36;9.80;;;9.40;;
1122;SDS011;548;48.778;9.252;2023-04-12T14:43:05;10.10;;;9.70;;
1122;SDS011;548;48.778;9.252;2023-04-12T14:45:31;10.67;;;10.30;;
1122;SDS011;548;48.778;9.252;2023-04-12T14:47:58;10.10;;;9.80;;
1122;SDS011;548;48.778;9.252;2023-04-12T14:50:25;11.13;;;10.73;;
1122;SDS011;548;48.778;9.252;2023-04-12T14:52:51;11.60;;;11.20;;
1122;SDS011;548;48.778;9.252;2023-04-12T14:55:18;10.97;;;10.50;;
1122;SDS011;548;48.778;9.252;2023-04-12T14:57:45;10.77;;;10.37;;
1122;SDS011;548;48.778;9.252;2023-04-12T15:00:13;10.67;;;10.27;;
1122;SDS011;548;48.778;9.252;2023-04-12T15:02:41;9.23;;;8.93;;
1122;SDS011;548;48.778;9.252;2023-04-12T15:05:08;10.60;;;10.20;;
1122;SDS011;548;48.778;9.252;2023-04-12T15:07:35;10.70;;;10.10;;
1122;SDS011;548;48.778;9.252;2023-04-12T15:10:02;10.20;;;9.90;;
1122;SDS011;548;48.778;9.252;2023-04-12T15:12:30;10.57;;;10.03;;
1122;SDS011;548;48.778;9.252;2023-04-12T15:14:58;10.93;;;10.53;;
1122;SDS011;548;48.778;9.252;2023-04-12T15:17:28;11.63;;;11.23;;
1122;SDS011;548;48.778;9.252;2023-04-12T15:19:56;10.73;;;10.33;;
1122;SDS011;548;48.778;9.252;2023-04-12T15:22:22;11.43;;;10.53;;
1122;SDS011;548;48.778;9.252;2023-04-12T15:24:49;11.17;;;10.77;;